Ada, Kansas
Current Conditions -  °F | °C
As of 2:10 PM on Sunday 23 Nov 2014 (Local Time) from KSLN Reporting Station
Light Rain Light Rain  
Wind Chill:   Ceiling: 3200
Heat Index:   Visibility: 10mi
Dew Point:   Wind: 29mph
Humidity: 74%   Direction: 340°NNW
Pressure: 29.5"   Gusts: 40mph
Location:  39.1542°N, 97.5941°W
Report Text: KSLN 232010Z 34025G35KT 10SM -RA BKN032 OVC040 07/03 A2950 RMK AO2 PK WND 35039/1959 P0001 T00720028
Loading
Personal Weather Stations






























Interactive Weather Map New forecast layout! Learn more

10-Day Weather Forecast

Advertisements
Track Severe Weather on mobile